Dapp, Canada
Current Conditions -  °F | °C
As of 10:00 PM on Wednesday 22 Oct 2014 (Local Time) from CZVL Reporting Station
Broken Clouds Broken Clouds  
Wind Chill: 45°   Ceiling: 17000
Heat Index: 48°   Visibility: 9mi
Dew Point: 32°   Wind: 7mph
Humidity: 54%   Direction: 150°SSE
Pressure: 29.55"   Gusts: NA
Location:  54.35°N, 113.92°W
Report Text: CZVL 230400Z AUTO 15006KT 9SM BKN170 09/00 A2955 RMK SLP024 DENSITY ALT 2500FT
Loading
Personal Weather Stations






























Interactive Weather Map
Tropical Storm Tracking
New forecast layout! Learn more

10-Day Weather Forecast

Advertisements
Track Severe Weather on mobile